sensor_id;sensor_type;location;lat;lon;timestamp;P1;durP1;ratioP1;P2;durP2;ratioP2
31872;SDS011;22407;42.820;23.374;2023-04-25T00:02:07;10.23;;;4.40;;
31872;SDS011;22407;42.820;23.374;2023-04-25T00:04:33;11.48;;;4.28;;
31872;SDS011;22407;42.820;23.374;2023-04-25T00:06:59;9.97;;;4.40;;
31872;SDS011;22407;42.820;23.374;2023-04-25T00:09:26;9.70;;;4.88;;
31872;SDS011;22407;42.820;23.374;2023-04-25T00:11:52;10.07;;;4.55;;
31872;SDS011;22407;42.820;23.374;2023-04-25T00:14:17;8.90;;;3.57;;
31872;SDS011;22407;42.820;23.374;2023-04-25T00:16:42;10.17;;;3.97;;
31872;SDS011;22407;42.820;23.374;2023-04-25T00:19:08;8.73;;;3.60;;
31872;SDS011;22407;42.820;23.374;2023-04-25T00:21:34;8.97;;;4.00;;
31872;SDS011;22407;42.820;23.374;2023-04-25T00:24:00;9.20;;;3.78;;
31872;SDS011;22407;42.820;23.374;2023-04-25T00:26:27;9.83;;;4.10;;
31872;SDS011;22407;42.820;23.374;2023-04-25T00:28:52;10.27;;;3.60;;
31872;SDS011;22407;42.820;23.374;2023-04-25T00:31:17;8.37;;;3.90;;
31872;SDS011;22407;42.820;23.374;2023-04-25T00:33:42;8.90;;;3.90;;
31872;SDS011;22407;42.820;23.374;2023-04-25T00:36:08;9.17;;;3.63;;
31872;SDS011;22407;42.820;23.374;2023-04-25T00:38:34;8.68;;;3.78;;
31872;SDS011;22407;42.820;23.374;2023-04-25T00:40:59;7.20;;;3.13;;
31872;SDS011;22407;42.820;23.374;2023-04-25T00:43:26;9.20;;;3.90;;
31872;SDS011;22407;42.820;23.374;2023-04-25T00:45:51;12.07;;;4.73;;
31872;SDS011;22407;42.820;23.374;2023-04-25T00:48:17;12.55;;;5.53;;
31872;SDS011;22407;42.820;23.374;2023-04-25T00:50:43;11.00;;;4.20;;
31872;SDS011;22407;42.820;23.374;2023-04-25T00:53:12;10.15;;;4.15;;
31872;SDS011;22407;42.820;23.374;2023-04-25T00:55:37;8.20;;;3.73;;
31872;SDS011;22407;42.820;23.374;2023-04-25T00:58:02;9.07;;;4.40;;
31872;SDS011;22407;42.820;23.374;2023-04-25T01:00:28;7.38;;;3.45;;
31872;SDS011;22407;42.820;23.374;2023-04-25T01:02:54;9.30;;;3.33;;
31872;SDS011;22407;42.820;23.374;2023-04-25T01:05:19;7.80;;;3.70;;
31872;SDS011;22407;42.820;23.374;2023-04-25T01:07:44;8.53;;;4.00;;
31872;SDS011;22407;42.820;23.374;2023-04-25T01:10:10;8.38;;;3.88;;
31872;SDS011;22407;42.820;23.374;2023-04-25T01:12:35;9.63;;;3.50;;
31872;SDS011;22407;42.820;23.374;2023-04-25T01:15:01;10.13;;;3.30;;
31872;SDS011;22407;42.820;23.374;2023-04-25T01:17:26;8.70;;;3.33;;
31872;SDS011;22407;42.820;23.374;2023-04-25T01:19:52;8.25;;;3.95;;
31872;SDS011;22407;42.820;23.374;2023-04-25T01:22:17;8.83;;;3.77;;
31872;SDS011;22407;42.820;23.374;2023-04-25T01:24:43;8.10;;;3.03;;
31872;SDS011;22407;42.820;23.374;2023-04-25T01:27:09;8.30;;;3.30;;
31872;SDS011;22407;42.820;23.374;2023-04-25T01:29:34;9.87;;;3.40;;
31872;SDS011;22407;42.820;23.374;2023-04-25T01:31:59;9.73;;;3.47;;
31872;SDS011;22407;42.820;23.374;2023-04-25T01:34:25;8.68;;;3.00;;
31872;SDS011;22407;42.820;23.374;2023-04-25T01:36:51;8.60;;;3.23;;
31872;SDS011;22407;42.820;23.374;2023-04-25T01:39:19;7.80;;;3.33;;
31872;SDS011;22407;42.820;23.374;2023-04-25T01:41:45;8.05;;;3.35;;
31872;SDS011;22407;42.820;23.374;2023-04-25T01:44:11;9.23;;;4.00;;
31872;SDS011;22407;42.820;23.374;2023-04-25T01:46:36;10.67;;;3.40;;
31872;SDS011;22407;42.820;23.374;2023-04-25T01:49:02;7.90;;;3.40;;
31872;SDS011;22407;42.820;23.374;2023-04-25T01:51:27;8.37;;;3.67;;
31872;SDS011;22407;42.820;23.374;2023-04-25T01:53:52;7.37;;;2.70;;
31872;SDS011;22407;42.820;23.374;2023-04-25T01:56:19;7.30;;;2.80;;
31872;SDS011;22407;42.820;23.374;2023-04-25T01:58:44;7.37;;;3.10;;
31872;SDS011;22407;42.820;23.374;2023-04-25T02:01:10;6.90;;;2.43;;
31872;SDS011;22407;42.820;23.374;2023-04-25T02:03:35;9.13;;;2.90;;
31872;SDS011;22407;42.820;23.374;2023-04-25T02:06:01;7.13;;;3.03;;
31872;SDS011;22407;42.820;23.374;2023-04-25T02:08:26;7.00;;;2.97;;
31872;SDS011;22407;42.820;23.374;2023-04-25T02:10:52;9.37;;;3.00;;
31872;SDS011;22407;42.820;23.374;2023-04-25T02:13:17;8.23;;;3.53;;
31872;SDS011;22407;42.820;23.374;2023-04-25T02:15:42;6.78;;;3.00;;
31872;SDS011;22407;42.820;23.374;2023-04-25T02:18:08;6.93;;;3.03;;
31872;SDS011;22407;42.820;23.374;2023-04-25T02:20:35;7.85;;;2.63;;
31872;SDS011;22407;42.820;23.374;2023-04-25T02:23:01;7.47;;;2.97;;
31872;SDS011;22407;42.820;23.374;2023-04-25T02:25:26;8.90;;;3.20;;
31872;SDS011;22407;42.820;23.374;2023-04-25T02:27:52;7.70;;;3.47;;
31872;SDS011;22407;42.820;23.374;2023-04-25T02:30:17;8.67;;;4.13;;
31872;SDS011;22407;42.820;23.374;2023-04-25T02:32:43;11.73;;;5.37;;
31872;SDS011;22407;42.820;23.374;2023-04-25T02:35:08;8.52;;;4.20;;
31872;SDS011;22407;42.820;23.374;2023-04-25T02:37:34;8.17;;;3.20;;
31872;SDS011;22407;42.820;23.374;2023-04-25T02:40:00;8.65;;;3.30;;
31872;SDS011;22407;42.820;23.374;2023-04-25T02:42:25;7.27;;;3.30;;
31872;SDS011;22407;42.820;23.374;2023-04-25T02:44:51;7.47;;;3.50;;
31872;SDS011;22407;42.820;23.374;2023-04-25T02:47:16;9.30;;;3.60;;
31872;SDS011;22407;42.820;23.374;2023-04-25T02:49:41;8.80;;;3.07;;
31872;SDS011;22407;42.820;23.374;2023-04-25T02:52:06;11.10;;;4.00;;
31872;SDS011;22407;42.820;23.374;2023-04-25T02:54:32;7.67;;;3.17;;
31872;SDS011;22407;42.820;23.374;2023-04-25T02:56:57;8.20;;;3.53;;
31872;SDS011;22407;42.820;23.374;2023-04-25T02:59:23;11.20;;;3.00;;
31872;SDS011;22407;42.820;23.374;2023-04-25T03:01:48;7.17;;;2.93;;
31872;SDS011;22407;42.820;23.374;2023-04-25T03:04:13;11.80;;;3.80;;
31872;SDS011;22407;42.820;23.374;2023-04-25T03:06:39;16.90;;;3.90;;
31872;SDS011;22407;42.820;23.374;2023-04-25T03:09:04;7.35;;;3.22;;
31872;SDS011;22407;42.820;23.374;2023-04-25T03:11:30;8.23;;;3.63;;
31872;SDS011;22407;42.820;23.374;2023-04-25T03:13:55;7.83;;;3.40;;
31872;SDS011;22407;42.820;23.374;2023-04-25T03:16:21;11.43;;;4.37;;
31872;SDS011;22407;42.820;23.374;2023-04-25T03:18:46;17.75;;;5.07;;
31872;SDS011;22407;42.820;23.374;2023-04-25T03:21:12;16.57;;;4.93;;
31872;SDS011;22407;42.820;23.374;2023-04-25T03:23:37;14.53;;;5.00;;
31872;SDS011;22407;42.820;23.374;2023-04-25T03:26:02;10.37;;;3.80;;
31872;SDS011;22407;42.820;23.374;2023-04-25T03:28:28;10.93;;;4.10;;
31872;SDS011;22407;42.820;23.374;2023-04-25T03:30:53;13.77;;;6.30;;
31872;SDS011;22407;42.820;23.374;2023-04-25T03:33:19;8.40;;;4.03;;
31872;SDS011;22407;42.820;23.374;2023-04-25T03:35:44;9.67;;;3.53;;
31872;SDS011;22407;42.820;23.374;2023-04-25T03:38:10;9.85;;;4.05;;
31872;SDS011;22407;42.820;23.374;2023-04-25T03:40:35;8.17;;;3.20;;
31872;SDS011;22407;42.820;23.374;2023-04-25T03:43:00;7.47;;;2.90;;
31872;SDS011;22407;42.820;23.374;2023-04-25T03:45:25;8.50;;;3.30;;
31872;SDS011;22407;42.820;23.374;2023-04-25T03:47:51;10.83;;;3.73;;
31872;SDS011;22407;42.820;23.374;2023-04-25T03:50:16;9.53;;;3.30;;
31872;SDS011;22407;42.820;23.374;2023-04-25T03:52:42;8.00;;;3.27;;
31872;SDS011;22407;42.820;23.374;2023-04-25T03:55:08;10.40;;;3.80;;
31872;SDS011;22407;42.820;23.374;2023-04-25T03:57:33;9.50;;;3.50;;
31872;SDS011;22407;42.820;23.374;2023-04-25T03:59:58;8.63;;;3.73;;
31872;SDS011;22407;42.820;23.374;2023-04-25T04:02:24;9.37;;;3.70;;
31872;SDS011;22407;42.820;23.374;2023-04-25T04:04:49;8.83;;;3.60;;
31872;SDS011;22407;42.820;23.374;2023-04-25T04:07:14;11.60;;;4.20;;
31872;SDS011;22407;42.820;23.374;2023-04-25T04:09:40;9.03;;;3.57;;
31872;SDS011;22407;42.820;23.374;2023-04-25T04:12:05;11.50;;;4.60;;
31872;SDS011;22407;42.820;23.374;2023-04-25T04:14:30;10.47;;;3.37;;
31872;SDS011;22407;42.820;23.374;2023-04-25T04:16:56;12.77;;;4.20;;
31872;SDS011;22407;42.820;23.374;2023-04-25T04:19:21;10.83;;;3.73;;
31872;SDS011;22407;42.820;23.374;2023-04-25T04:21:46;10.00;;;4.40;;
31872;SDS011;22407;42.820;23.374;2023-04-25T04:24:11;12.50;;;5.17;;
31872;SDS011;22407;42.820;23.374;2023-04-25T04:26:37;9.77;;;4.20;;
31872;SDS011;22407;42.820;23.374;2023-04-25T04:29:03;12.20;;;4.90;;
31872;SDS011;22407;42.820;23.374;2023-04-25T04:31:28;12.30;;;5.40;;
31872;SDS011;22407;42.820;23.374;2023-04-25T04:33:55;11.95;;;5.22;;
31872;SDS011;22407;42.820;23.374;2023-04-25T04:36:20;14.60;;;5.70;;
31872;SDS011;22407;42.820;23.374;2023-04-25T04:38:46;12.73;;;5.85;;
31872;SDS011;22407;42.820;23.374;2023-04-25T04:41:12;15.20;;;5.10;;
31872;SDS011;22407;42.820;23.374;2023-04-25T04:43:37;11.90;;;4.57;;
31872;SDS011;22407;42.820;23.374;2023-04-25T04:46:04;10.70;;;4.60;;
31872;SDS011;22407;42.820;23.374;2023-04-25T04:48:31;12.20;;;4.50;;
31872;SDS011;22407;42.820;23.374;2023-04-25T04:50:57;10.35;;;4.13;;
31872;SDS011;22407;42.820;23.374;2023-04-25T04:53:23;10.27;;;4.07;;
31872;SDS011;22407;42.820;23.374;2023-04-25T04:55:48;10.33;;;3.40;;
31872;SDS011;22407;42.820;23.374;2023-04-25T04:58:13;10.40;;;3.80;;
31872;SDS011;22407;42.820;23.374;2023-04-25T05:00:38;9.70;;;4.83;;
31872;SDS011;22407;42.820;23.374;2023-04-25T05:03:05;9.98;;;4.45;;
31872;SDS011;22407;42.820;23.374;2023-04-25T05:05:30;10.80;;;4.43;;
31872;SDS011;22407;42.820;23.374;2023-04-25T05:07:56;11.40;;;4.90;;
31872;SDS011;22407;42.820;23.374;2023-04-25T05:10:23;11.17;;;4.50;;
31872;SDS011;22407;42.820;23.374;2023-04-25T05:12:49;10.57;;;5.18;;
31872;SDS011;22407;42.820;23.374;2023-04-25T05:15:14;14.27;;;6.03;;
31872;SDS011;22407;42.820;23.374;2023-04-25T05:17:39;13.00;;;5.60;;
31872;SDS011;22407;42.820;23.374;2023-04-25T05:20:08;28.45;;;14.20;;
31872;SDS011;22407;42.820;23.374;2023-04-25T05:22:36;23.20;;;11.20;;
31872;SDS011;22407;42.820;23.374;2023-04-25T05:25:02;23.43;;;11.83;;
31872;SDS011;22407;42.820;23.374;2023-04-25T05:27:28;31.00;;;17.20;;
31872;SDS011;22407;42.820;23.374;2023-04-25T05:29:53;33.40;;;17.67;;
31872;SDS011;22407;42.820;23.374;2023-04-25T05:32:19;40.17;;;23.00;;
31872;SDS011;22407;42.820;23.374;2023-04-25T05:34:44;44.47;;;26.47;;
31872;SDS011;22407;42.820;23.374;2023-04-25T05:37:09;36.93;;;20.83;;
31872;SDS011;22407;42.820;23.374;2023-04-25T05:39:35;33.43;;;19.07;;
31872;SDS011;22407;42.820;23.374;2023-04-25T05:42:00;27.60;;;13.63;;
31872;SDS011;22407;42.820;23.374;2023-04-25T05:44:26;19.42;;;10.00;;
31872;SDS011;22407;42.820;23.374;2023-04-25T05:46:52;19.57;;;9.53;;
31872;SDS011;22407;42.820;23.374;2023-04-25T05:49:17;21.97;;;10.00;;
31872;SDS011;22407;42.820;23.374;2023-04-25T05:51:42;23.27;;;11.63;;
31872;SDS011;22407;42.820;23.374;2023-04-25T05:54:08;23.73;;;11.63;;
31872;SDS011;22407;42.820;23.374;2023-04-25T05:56:34;25.90;;;11.63;;
31872;SDS011;22407;42.820;23.374;2023-04-25T05:59:00;23.00;;;12.53;;
31872;SDS011;22407;42.820;23.374;2023-04-25T06:01:25;25.90;;;14.57;;
31872;SDS011;22407;42.820;23.374;2023-04-25T06:03:50;26.13;;;14.73;;
31872;SDS011;22407;42.820;23.374;2023-04-25T06:06:17;28.90;;;15.95;;
31872;SDS011;22407;42.820;23.374;2023-04-25T06:08:42;27.27;;;15.03;;
31872;SDS011;22407;42.820;23.374;2023-04-25T06:11:08;30.60;;;17.60;;
31872;SDS011;22407;42.820;23.374;2023-04-25T06:13:36;35.22;;;18.95;;
31872;SDS011;22407;42.820;23.374;2023-04-25T06:16:03;40.77;;;23.23;;
31872;SDS011;22407;42.820;23.374;2023-04-25T06:18:29;37.45;;;21.10;;
31872;SDS011;22407;42.820;23.374;2023-04-25T06:20:55;35.57;;;19.60;;
31872;SDS011;22407;42.820;23.374;2023-04-25T06:23:20;39.47;;;22.13;;
31872;SDS011;22407;42.820;23.374;2023-04-25T06:25:45;29.90;;;16.20;;
31872;SDS011;22407;42.820;23.374;2023-04-25T06:28:11;28.47;;;15.80;;
31872;SDS011;22407;42.820;23.374;2023-04-25T06:30:36;31.50;;;16.67;;
31872;SDS011;22407;42.820;23.374;2023-04-25T06:33:01;30.03;;;16.70;;
31872;SDS011;22407;42.820;23.374;2023-04-25T06:35:27;31.70;;;16.53;;
31872;SDS011;22407;42.820;23.374;2023-04-25T06:37:52;30.30;;;16.67;;
31872;SDS011;22407;42.820;23.374;2023-04-25T06:40:17;30.30;;;16.50;;
31872;SDS011;22407;42.820;23.374;2023-04-25T06:42:43;26.60;;;14.15;;
31872;SDS011;22407;42.820;23.374;2023-04-25T06:45:08;28.27;;;14.27;;
31872;SDS011;22407;42.820;23.374;2023-04-25T06:47:34;24.70;;;12.60;;
31872;SDS011;22407;42.820;23.374;2023-04-25T06:49:59;21.50;;;11.02;;
31872;SDS011;22407;42.820;23.374;2023-04-25T06:52:25;21.63;;;11.13;;
31872;SDS011;22407;42.820;23.374;2023-04-25T06:54:50;18.27;;;10.23;;
31872;SDS011;22407;42.820;23.374;2023-04-25T06:57:15;18.90;;;10.23;;
31872;SDS011;22407;42.820;23.374;2023-04-25T06:59:40;15.20;;;7.93;;
31872;SDS011;22407;42.820;23.374;2023-04-25T07:02:06;15.63;;;8.00;;
31872;SDS011;22407;42.820;23.374;2023-04-25T07:04:31;16.10;;;8.03;;
31872;SDS011;22407;42.820;23.374;2023-04-25T07:06:56;16.20;;;8.00;;
31872;SDS011;22407;42.820;23.374;2023-04-25T07:09:22;14.05;;;8.05;;
31872;SDS011;22407;42.820;23.374;2023-04-25T07:11:47;13.63;;;7.47;;
31872;SDS011;22407;42.820;23.374;2023-04-25T07:14:12;13.70;;;7.30;;
31872;SDS011;22407;42.820;23.374;2023-04-25T07:16:38;15.40;;;7.23;;
31872;SDS011;22407;42.820;23.374;2023-04-25T07:19:03;12.87;;;7.03;;
31872;SDS011;22407;42.820;23.374;2023-04-25T07:21:28;15.35;;;6.93;;
31872;SDS011;22407;42.820;23.374;2023-04-25T07:23:55;14.07;;;6.97;;
31872;SDS011;22407;42.820;23.374;2023-04-25T07:26:21;14.05;;;7.15;;
31872;SDS011;22407;42.820;23.374;2023-04-25T07:28:46;14.60;;;7.43;;
31872;SDS011;22407;42.820;23.374;2023-04-25T07:31:14;14.83;;;6.93;;
31872;SDS011;22407;42.820;23.374;2023-04-25T07:33:42;15.05;;;7.50;;
31872;SDS011;22407;42.820;23.374;2023-04-25T07:36:07;14.10;;;7.10;;
31872;SDS011;22407;42.820;23.374;2023-04-25T07:38:33;12.80;;;7.47;;
31872;SDS011;22407;42.820;23.374;2023-04-25T07:40:58;12.37;;;6.80;;
31872;SDS011;22407;42.820;23.374;2023-04-25T07:43:23;12.53;;;6.43;;
31872;SDS011;22407;42.820;23.374;2023-04-25T07:45:48;12.00;;;6.27;;
31872;SDS011;22407;42.820;23.374;2023-04-25T07:48:17;11.13;;;6.30;;
31872;SDS011;22407;42.820;23.374;2023-04-25T07:50:45;13.77;;;6.28;;
31872;SDS011;22407;42.820;23.374;2023-04-25T07:53:10;12.30;;;6.37;;
31872;SDS011;22407;42.820;23.374;2023-04-25T07:55:36;12.37;;;6.33;;
31872;SDS011;22407;42.820;23.374;2023-04-25T07:58:04;11.82;;;5.57;;
31872;SDS011;22407;42.820;23.374;2023-04-25T08:00:30;10.23;;;5.30;;
31872;SDS011;22407;42.820;23.374;2023-04-25T08:02:55;10.60;;;5.40;;
31872;SDS011;22407;42.820;23.374;2023-04-25T08:05:21;10.03;;;5.00;;
31872;SDS011;22407;42.820;23.374;2023-04-25T08:07:46;9.30;;;5.50;;
31872;SDS011;22407;42.820;23.374;2023-04-25T08:10:11;8.90;;;4.63;;
31872;SDS011;22407;42.820;23.374;2023-04-25T08:12:36;10.10;;;4.97;;
31872;SDS011;22407;42.820;23.374;2023-04-25T08:15:02;13.00;;;6.20;;
31872;SDS011;22407;42.820;23.374;2023-04-25T08:17:27;8.77;;;4.50;;
31872;SDS011;22407;42.820;23.374;2023-04-25T08:19:52;7.77;;;4.17;;
31872;SDS011;22407;42.820;23.374;2023-04-25T08:22:18;7.67;;;3.17;;
31872;SDS011;22407;42.820;23.374;2023-04-25T08:24:43;9.43;;;3.60;;
31872;SDS011;22407;42.820;23.374;2023-04-25T08:27:09;7.30;;;3.23;;
31872;SDS011;22407;42.820;23.374;2023-04-25T08:29:34;6.95;;;3.38;;
31872;SDS011;22407;42.820;23.374;2023-04-25T08:32:00;8.33;;;3.60;;
31872;SDS011;22407;42.820;23.374;2023-04-25T08:34:25;7.63;;;3.77;;
31872;SDS011;22407;42.820;23.374;2023-04-25T08:36:51;10.13;;;4.47;;
31872;SDS011;22407;42.820;23.374;2023-04-25T08:39:17;8.00;;;3.53;;
31872;SDS011;22407;42.820;23.374;2023-04-25T08:41:42;6.55;;;3.10;;
31872;SDS011;22407;42.820;23.374;2023-04-25T08:44:10;7.20;;;2.97;;
31872;SDS011;22407;42.820;23.374;2023-04-25T08:46:35;9.25;;;3.75;;
31872;SDS011;22407;42.820;23.374;2023-04-25T08:49:02;6.20;;;3.05;;
31872;SDS011;22407;42.820;23.374;2023-04-25T08:51:29;7.07;;;3.27;;
31872;SDS011;22407;42.820;23.374;2023-04-25T08:53:55;9.07;;;4.43;;
31872;SDS011;22407;42.820;23.374;2023-04-25T08:56:21;7.63;;;4.03;;
31872;SDS011;22407;42.820;23.374;2023-04-25T08:58:48;7.75;;;3.90;;
31872;SDS011;22407;42.820;23.374;2023-04-25T09:01:15;15.77;;;10.05;;
31872;SDS011;22407;42.820;23.374;2023-04-25T09:03:40;8.27;;;3.90;;
31872;SDS011;22407;42.820;23.374;2023-04-25T09:06:06;7.65;;;4.40;;
31872;SDS011;22407;42.820;23.374;2023-04-25T09:08:32;11.03;;;6.37;;
31872;SDS011;22407;42.820;23.374;2023-04-25T09:10:57;10.77;;;6.53;;
31872;SDS011;22407;42.820;23.374;2023-04-25T09:13:26;7.10;;;4.00;;
31872;SDS011;22407;42.820;23.374;2023-04-25T09:15:53;7.80;;;4.30;;
31872;SDS011;22407;42.820;23.374;2023-04-25T09:18:37;8.60;;;4.57;;
31872;SDS011;22407;42.820;23.374;2023-04-25T09:23:30;8.50;;;4.32;;
31872;SDS011;22407;42.820;23.374;2023-04-25T09:25:57;7.70;;;4.10;;
31872;SDS011;22407;42.820;23.374;2023-04-25T09:28:23;11.03;;;5.63;;
31872;SDS011;22407;42.820;23.374;2023-04-25T09:30:53;8.07;;;4.20;;
31872;SDS011;22407;42.820;23.374;2023-04-25T09:33:19;7.78;;;3.58;;
31872;SDS011;22407;42.820;23.374;2023-04-25T09:35:45;8.05;;;3.58;;
31872;SDS011;22407;42.820;23.374;2023-04-25T09:38:14;5.37;;;2.67;;
31872;SDS011;22407;42.820;23.374;2023-04-25T09:40:43;5.53;;;2.42;;
31872;SDS011;22407;42.820;23.374;2023-04-25T09:43:29;7.00;;;2.92;;
31872;SDS011;22407;42.820;23.374;2023-04-25T09:45:54;6.15;;;2.72;;
31872;SDS011;22407;42.820;23.374;2023-04-25T09:48:24;6.67;;;3.90;;
31872;SDS011;22407;42.820;23.374;2023-04-25T09:51:03;8.63;;;4.00;;
31872;SDS011;22407;42.820;23.374;2023-04-25T09:53:29;8.52;;;3.80;;
31872;SDS011;22407;42.820;23.374;2023-04-25T09:55:55;7.07;;;3.00;;
31872;SDS011;22407;42.820;23.374;2023-04-25T09:58:21;8.45;;;4.38;;
31872;SDS011;22407;42.820;23.374;2023-04-25T10:00:47;7.10;;;3.50;;
31872;SDS011;22407;42.820;23.374;2023-04-25T10:03:13;5.70;;;2.67;;
31872;SDS011;22407;42.820;23.374;2023-04-25T10:05:39;6.35;;;2.30;;
31872;SDS011;22407;42.820;23.374;2023-04-25T10:08:05;6.47;;;2.58;;
31872;SDS011;22407;42.820;23.374;2023-04-25T10:10:31;5.77;;;2.77;;
31872;SDS011;22407;42.820;23.374;2023-04-25T10:13:01;5.72;;;2.95;;
31872;SDS011;22407;42.820;23.374;2023-04-25T10:15:27;5.35;;;2.60;;
31872;SDS011;22407;42.820;23.374;2023-04-25T10:17:52;6.83;;;2.60;;
31872;SDS011;22407;42.820;23.374;2023-04-25T10:20:18;6.28;;;2.42;;
31872;SDS011;22407;42.820;23.374;2023-04-25T10:22:46;6.10;;;2.50;;
31872;SDS011;22407;42.820;23.374;2023-04-25T10:25:13;5.43;;;2.25;;
31872;SDS011;22407;42.820;23.374;2023-04-25T10:27:39;5.47;;;1.63;;
31872;SDS011;22407;42.820;23.374;2023-04-25T10:30:08;7.47;;;1.47;;
31872;SDS011;22407;42.820;23.374;2023-04-25T10:32:37;3.97;;;1.10;;
31872;SDS011;22407;42.820;23.374;2023-04-25T10:35:12;3.70;;;0.97;;
31872;SDS011;22407;42.820;23.374;2023-04-25T10:37:38;5.30;;;1.50;;
31872;SDS011;22407;42.820;23.374;2023-04-25T10:40:09;4.00;;;1.20;;
31872;SDS011;22407;42.820;23.374;2023-04-25T10:42:35;4.47;;;1.40;;
31872;SDS011;22407;42.820;23.374;2023-04-25T10:45:09;3.90;;;1.10;;
31872;SDS011;22407;42.820;23.374;2023-04-25T10:47:35;4.18;;;1.27;;
31872;SDS011;22407;42.820;23.374;2023-04-25T10:50:05;4.40;;;1.65;;
31872;SDS011;22407;42.820;23.374;2023-04-25T10:52:32;11.23;;;2.05;;
31872;SDS011;22407;42.820;23.374;2023-04-25T10:54:58;4.60;;;1.60;;
31872;SDS011;22407;42.820;23.374;2023-04-25T10:57:42;4.80;;;1.70;;
31872;SDS011;22407;42.820;23.374;2023-04-25T11:02:51;6.23;;;2.10;;
31872;SDS011;22407;42.820;23.374;2023-04-25T11:05:35;5.22;;;2.30;;
31872;SDS011;22407;42.820;23.374;2023-04-25T11:08:01;4.53;;;1.95;;
31872;SDS011;22407;42.820;23.374;2023-04-25T11:10:28;5.90;;;1.83;;
31872;SDS011;22407;42.820;23.374;2023-04-25T11:12:54;5.53;;;2.40;;
31872;SDS011;22407;42.820;23.374;2023-04-25T11:15:20;4.30;;;1.70;;
31872;SDS011;22407;42.820;23.374;2023-04-25T11:17:46;5.25;;;2.00;;
31872;SDS011;22407;42.820;23.374;2023-04-25T11:20:12;5.03;;;2.23;;
31872;SDS011;22407;42.820;23.374;2023-04-25T11:22:38;4.20;;;1.55;;
31872;SDS011;22407;42.820;23.374;2023-04-25T11:25:08;4.35;;;1.75;;
31872;SDS011;22407;42.820;23.374;2023-04-25T11:27:33;4.60;;;2.00;;
31872;SDS011;22407;42.820;23.374;2023-04-25T11:30:09;4.53;;;1.92;;
31872;SDS011;22407;42.820;23.374;2023-04-25T11:32:34;4.13;;;1.88;;
31872;SDS011;22407;42.820;23.374;2023-04-25T11:34:59;4.57;;;1.80;;
31872;SDS011;22407;42.820;23.374;2023-04-25T11:37:25;4.80;;;1.88;;
31872;SDS011;22407;42.820;23.374;2023-04-25T11:39:51;4.40;;;2.10;;
31872;SDS011;22407;42.820;23.374;2023-04-25T11:42:17;4.30;;;1.73;;
31872;SDS011;22407;42.820;23.374;2023-04-25T11:44:42;4.57;;;2.10;;
31872;SDS011;22407;42.820;23.374;2023-04-25T11:47:07;4.57;;;1.97;;
31872;SDS011;22407;42.820;23.374;2023-04-25T11:49:33;4.40;;;1.90;;
31872;SDS011;22407;42.820;23.374;2023-04-25T11:51:58;4.73;;;1.80;;
31872;SDS011;22407;42.820;23.374;2023-04-25T11:54:24;5.60;;;2.00;;
31872;SDS011;22407;42.820;23.374;2023-04-25T11:56:49;4.50;;;1.83;;
31872;SDS011;22407;42.820;23.374;2023-04-25T11:59:15;4.33;;;1.90;;
31872;SDS011;22407;42.820;23.374;2023-04-25T12:01:47;5.95;;;1.98;;
31872;SDS011;22407;42.820;23.374;2023-04-25T12:04:31;4.85;;;1.77;;
31872;SDS011;22407;42.820;23.374;2023-04-25T12:06:57;5.00;;;1.30;;
31872;SDS011;22407;42.820;23.374;2023-04-25T12:09:32;5.80;;;1.73;;
31872;SDS011;22407;42.820;23.374;2023-04-25T12:11:58;6.10;;;1.70;;
31872;SDS011;22407;42.820;23.374;2023-04-25T12:14:27;4.18;;;1.45;;
31872;SDS011;22407;42.820;23.374;2023-04-25T12:16:54;4.57;;;1.58;;
31872;SDS011;22407;42.820;23.374;2023-04-25T12:19:23;5.10;;;1.75;;
31872;SDS011;22407;42.820;23.374;2023-04-25T12:21:49;4.87;;;1.73;;
31872;SDS011;22407;42.820;23.374;2023-04-25T12:24:21;6.30;;;1.77;;
31872;SDS011;22407;42.820;23.374;2023-04-25T12:29:17;6.03;;;2.17;;
31872;SDS011;22407;42.820;23.374;2023-04-25T12:31:42;5.40;;;1.77;;
31872;SDS011;22407;42.820;23.374;2023-04-25T12:34:07;5.33;;;1.60;;
31872;SDS011;22407;42.820;23.374;2023-04-25T12:36:33;5.63;;;1.53;;
31872;SDS011;22407;42.820;23.374;2023-04-25T12:38:58;5.70;;;1.60;;
31872;SDS011;22407;42.820;23.374;2023-04-25T12:41:29;5.90;;;1.90;;
31872;SDS011;22407;42.820;23.374;2023-04-25T12:43:54;5.17;;;1.57;;
31872;SDS011;22407;42.820;23.374;2023-04-25T12:46:20;5.97;;;2.15;;
31872;SDS011;22407;42.820;23.374;2023-04-25T12:48:45;13.17;;;3.87;;
31872;SDS011;22407;42.820;23.374;2023-04-25T12:51:10;7.07;;;2.13;;
31872;SDS011;22407;42.820;23.374;2023-04-25T12:53:36;6.73;;;2.33;;
31872;SDS011;22407;42.820;23.374;2023-04-25T12:56:02;6.18;;;2.92;;
31872;SDS011;22407;42.820;23.374;2023-04-25T12:58:28;5.33;;;1.90;;
31872;SDS011;22407;42.820;23.374;2023-04-25T13:00:53;8.20;;;2.53;;
31872;SDS011;22407;42.820;23.374;2023-04-25T13:03:18;5.33;;;2.00;;
31872;SDS011;22407;42.820;23.374;2023-04-25T13:05:43;5.40;;;2.13;;
31872;SDS011;22407;42.820;23.374;2023-04-25T13:08:08;5.87;;;2.17;;
31872;SDS011;22407;42.820;23.374;2023-04-25T13:10:34;5.28;;;2.10;;
31872;SDS011;22407;42.820;23.374;2023-04-25T13:13:01;5.55;;;2.20;;
31872;SDS011;22407;42.820;23.374;2023-04-25T13:15:26;4.60;;;1.90;;
31872;SDS011;22407;42.820;23.374;2023-04-25T13:17:52;5.93;;;1.97;;
31872;SDS011;22407;42.820;23.374;2023-04-25T13:20:17;6.33;;;1.90;;
31872;SDS011;22407;42.820;23.374;2023-04-25T13:22:59;8.68;;;2.63;;
31872;SDS011;22407;42.820;23.374;2023-04-25T13:25:25;7.63;;;2.80;;
31872;SDS011;22407;42.820;23.374;2023-04-25T13:27:50;9.63;;;3.15;;
31872;SDS011;22407;42.820;23.374;2023-04-25T13:30:15;9.00;;;3.63;;
31872;SDS011;22407;42.820;23.374;2023-04-25T13:32:41;5.93;;;2.80;;
31872;SDS011;22407;42.820;23.374;2023-04-25T13:35:07;5.83;;;2.90;;
31872;SDS011;22407;42.820;23.374;2023-04-25T13:37:33;6.38;;;2.92;;
31872;SDS011;22407;42.820;23.374;2023-04-25T13:40:09;8.13;;;3.20;;
31872;SDS011;22407;42.820;23.374;2023-04-25T13:42:38;7.30;;;2.85;;
31872;SDS011;22407;42.820;23.374;2023-04-25T13:45:03;8.65;;;3.90;;
31872;SDS011;22407;42.820;23.374;2023-04-25T13:47:28;6.33;;;2.80;;
31872;SDS011;22407;42.820;23.374;2023-04-25T13:49:55;5.60;;;2.40;;
31872;SDS011;22407;42.820;23.374;2023-04-25T13:52:20;5.87;;;2.80;;
31872;SDS011;22407;42.820;23.374;2023-04-25T13:54:45;7.03;;;2.40;;
31872;SDS011;22407;42.820;23.374;2023-04-25T13:57:11;6.07;;;2.20;;
31872;SDS011;22407;42.820;23.374;2023-04-25T13:59:36;5.38;;;2.05;;
31872;SDS011;22407;42.820;23.374;2023-04-25T14:02:01;6.13;;;2.00;;
31872;SDS011;22407;42.820;23.374;2023-04-25T14:04:27;4.47;;;1.63;;
31872;SDS011;22407;42.820;23.374;2023-04-25T14:06:52;5.60;;;1.60;;
31872;SDS011;22407;42.820;23.374;2023-04-25T14:09:18;4.30;;;1.40;;
31872;SDS011;22407;42.820;23.374;2023-04-25T14:11:45;4.50;;;1.90;;
31872;SDS011;22407;42.820;23.374;2023-04-25T14:14:10;6.87;;;2.20;;
31872;SDS011;22407;42.820;23.374;2023-04-25T14:16:37;5.40;;;2.30;;
31872;SDS011;22407;42.820;23.374;2023-04-25T14:19:02;5.10;;;1.98;;
31872;SDS011;22407;42.820;23.374;2023-04-25T14:21:28;5.20;;;2.20;;
31872;SDS011;22407;42.820;23.374;2023-04-25T14:23:54;5.97;;;2.75;;
31872;SDS011;22407;42.820;23.374;2023-04-25T14:26:19;4.80;;;1.80;;
31872;SDS011;22407;42.820;23.374;2023-04-25T14:28:45;4.37;;;1.67;;
31872;SDS011;22407;42.820;23.374;2023-04-25T14:31:10;4.77;;;2.00;;